Time;durP1;ratioP1;P1;durP2;ratioP2;P2;SDS_P1;SDS_P2;PMS_P1;PMS_P2;Temp;Humidity;BMP_temperature;BMP_pressure;BME280_temperature;BME280_humidity;BME280_pressure;Samples;Min_cycle;Max_cycle;Signal;HPM_P1;HPM_P2
2023/08/03 00:00:12;;;;;;;5.93;1.70;;;16.00;99.90;;;;;;5073468;28;20050;-90
2023/08/03 00:02:45;;;;;;;4.85;2.13;;;16.00;99.90;;;;;;5070713;28;20046;-93
2023/08/03 00:05:20;;;;;;;12.95;1.73;;;16.00;99.90;;;;;;5057120;28;20047;-91
2023/08/03 00:07:50;;;;;;;6.97;1.73;;;16.00;99.90;;;;;;5066998;28;20101;-91
2023/08/03 00:10:29;;;;;;;5.88;2.10;;;16.10;99.90;;;;;;5071131;28;20575;-91
2023/08/03 00:12:56;;;;;;;4.32;1.95;;;16.10;99.90;;;;;;5066948;28;20498;-91
2023/08/03 00:15:23;;;;;;;6.13;1.77;;;16.00;99.90;;;;;;5063640;28;20048;-91
2023/08/03 00:17:48;;;;;;;5.28;1.80;;;16.00;99.90;;;;;;5075410;28;20093;-89
2023/08/03 00:20:14;;;;;;;5.22;1.60;;;16.70;99.90;;;;;;5060085;28;20037;-87
2023/08/03 00:22:40;;;;;;;5.40;1.70;;;16.10;99.90;;;;;;5069307;28;20044;-86
2023/08/03 00:25:06;;;;;;;3.92;1.60;;;16.10;99.90;;;;;;5051345;28;20513;-88
2023/08/03 00:27:32;;;;;;;4.60;1.52;;;16.00;99.90;;;;;;5055043;28;20028;-91
2023/08/03 00:29:57;;;;;;;4.60;1.70;;;15.80;99.90;;;;;;5056126;28;20044;-90
2023/08/03 00:32:23;;;;;;;2.47;1.52;;;16.30;99.90;;;;;;5055001;28;20039;-90
2023/08/03 00:34:49;;;;;;;2.65;1.20;;;16.00;99.90;;;;;;5066918;28;20121;-90
2023/08/03 00:37:14;;;;;;;2.72;1.25;;;16.10;99.90;;;;;;5074840;28;20046;-89
2023/08/03 00:39:40;;;;;;;3.75;1.45;;;15.70;99.90;;;;;;5061356;28;20503;-88
2023/08/03 00:42:06;;;;;;;3.58;1.70;;;16.10;99.90;;;;;;5055142;28;20497;-89
2023/08/03 00:44:32;;;;;;;3.20;1.60;;;16.00;99.90;;;;;;5066038;28;20047;-88
2023/08/03 00:46:59;;;;;;;2.95;1.33;;;16.30;99.90;;;;;;5062868;28;20123;-89
2023/08/03 00:49:28;;;;;;;3.00;1.50;;;16.00;99.90;;;;;;5060723;28;20125;-89
2023/08/03 00:51:55;;;;;;;2.05;1.20;;;16.00;99.90;;;;;;5073806;28;20047;-88
2023/08/03 00:54:21;;;;;;;4.05;1.70;;;16.00;99.90;;;;;;5070794;28;20045;-87
2023/08/03 00:56:46;;;;;;;4.65;1.40;;;15.90;99.90;;;;;;5081807;28;20124;-87
2023/08/03 00:59:12;;;;;;;1.92;1.30;;;16.00;99.90;;;;;;5058484;28;20372;-88
2023/08/03 01:01:38;;;;;;;1.65;1.10;;;16.10;99.90;;;;;;5063686;28;20136;-88
2023/08/03 01:04:04;;;;;;;2.78;1.38;;;15.90;99.90;;;;;;5056874;28;20044;-88
2023/08/03 01:06:29;;;;;;;1.85;1.08;;;16.20;99.90;;;;;;5053288;28;20058;-86
2023/08/03 01:08:57;;;;;;;2.92;1.40;;;16.10;99.90;;;;;;5053650;28;20078;-88
2023/08/03 01:11:23;;;;;;;3.13;1.15;;;15.90;99.90;;;;;;5069360;28;20443;-87
2023/08/03 01:13:49;;;;;;;2.13;1.00;;;16.00;99.90;;;;;;5081932;28;20083;-87
2023/08/03 01:16:15;;;;;;;3.10;1.40;;;15.90;99.90;;;;;;5059493;28;20460;-86
2023/08/03 01:18:42;;;;;;;1.88;1.20;;;16.00;99.90;;;;;;5087887;28;20055;-86
2023/08/03 01:21:09;;;;;;;2.40;1.27;;;16.00;99.90;;;;;;5084537;28;20048;-85
2023/08/03 01:23:35;;;;;;;3.53;1.40;;;16.00;99.90;;;;;;5067183;28;20052;-85
2023/08/03 01:26:00;;;;;;;3.28;1.50;;;15.90;99.90;;;;;;5052434;28;20800;-87
2023/08/03 01:28:26;;;;;;;1.45;1.17;;;16.10;99.90;;;;;;5072934;28;20036;-86
2023/08/03 01:30:52;;;;;;;2.28;1.20;;;16.00;99.90;;;;;;5072356;28;20106;-86
2023/08/03 01:33:17;;;;;;;2.97;1.10;;;16.20;99.90;;;;;;5060213;28;20052;-85
2023/08/03 01:35:43;;;;;;;2.60;1.40;;;16.00;99.90;;;;;;5069382;28;20032;-84
2023/08/03 01:38:12;;;;;;;2.65;1.30;;;16.00;99.90;;;;;;5068814;28;20404;-84
2023/08/03 01:40:38;;;;;;;1.20;1.10;;;16.00;99.90;;;;;;5084468;28;20036;-85
2023/08/03 01:43:06;;;;;;;3.10;1.08;;;16.00;99.90;;;;;;5069742;28;20040;-86
2023/08/03 01:45:32;;;;;;;2.85;1.27;;;16.00;99.90;;;;;;5067331;28;20051;-86
2023/08/03 01:47:57;;;;;;;3.53;1.30;;;16.00;99.90;;;;;;5085042;28;20708;-85
2023/08/03 01:50:23;;;;;;;1.88;1.13;;;16.00;99.90;;;;;;5050696;28;20060;-85
2023/08/03 01:52:49;;;;;;;1.20;0.90;;;16.00;99.90;;;;;;5054228;28;20490;-89
2023/08/03 01:55:14;;;;;;;2.13;1.10;;;16.00;99.90;;;;;;5063139;28;20054;-87
2023/08/03 01:57:40;;;;;;;2.30;1.08;;;16.00;99.90;;;;;;5064237;28;20083;-86
2023/08/03 02:00:06;;;;;;;1.20;1.10;;;15.50;99.90;;;;;;5075246;28;20048;-86
2023/08/03 02:02:32;;;;;;;2.80;1.10;;;16.00;99.90;;;;;;5084336;28;20048;-86
2023/08/03 02:04:57;;;;;;;1.38;0.82;;;16.00;99.90;;;;;;5080699;28;20055;-87
2023/08/03 02:07:47;;;;;;;1.10;1.00;;;16.30;99.90;;;;;;5068039;28;20036;-87
2023/08/03 02:10:14;;;;;;;2.33;1.33;;;16.00;99.90;;;;;;5075116;28;20105;-86
2023/08/03 02:12:39;;;;;;;3.45;1.00;;;15.90;99.90;;;;;;5048873;28;20044;-87
2023/08/03 02:15:06;;;;;;;1.58;1.08;;;16.00;99.90;;;;;;5049671;28;20093;-86
2023/08/03 02:17:32;;;;;;;2.17;1.17;;;16.00;99.90;;;;;;5067447;28;20886;-87
2023/08/03 02:19:58;;;;;;;3.17;1.30;;;16.00;99.90;;;;;;5085595;28;20059;-88
2023/08/03 02:22:24;;;;;;;1.65;1.17;;;16.00;99.90;;;;;;5072843;28;20086;-87
2023/08/03 02:24:52;;;;;;;1.67;1.05;;;16.20;99.90;;;;;;5057280;28;20044;-87
2023/08/03 02:27:18;;;;;;;2.75;1.20;;;16.00;99.90;;;;;;5070202;28;20048;-87
2023/08/03 02:29:43;;;;;;;1.80;1.10;;;16.00;99.90;;;;;;5070353;28;20098;-87
2023/08/03 02:32:09;;;;;;;2.22;1.20;;;16.00;99.90;;;;;;5090876;28;20055;-87
2023/08/03 02:34:34;;;;;;;2.17;1.35;;;16.00;99.90;;;;;;5068720;28;20392;-86
2023/08/03 02:37:00;;;;;;;2.40;1.50;;;16.00;99.90;;;;;;5090179;28;20044;-86
2023/08/03 02:39:26;;;;;;;2.13;1.80;;;16.00;99.90;;;;;;5071514;28;20450;-87
2023/08/03 02:41:52;;;;;;;2.33;2.13;;;16.00;99.90;;;;;;5052406;28;20098;-86
2023/08/03 02:44:18;;;;;;;3.42;2.10;;;16.20;99.90;;;;;;5059320;28;20051;-86
2023/08/03 02:46:44;;;;;;;3.72;2.15;;;16.10;99.90;;;;;;5088697;28;20043;-87
2023/08/03 02:49:10;;;;;;;2.90;2.60;;;16.00;99.90;;;;;;5071653;28;20112;-87
2023/08/03 02:51:35;;;;;;;5.85;3.22;;;16.10;99.90;;;;;;5057958;28;20100;-87
2023/08/03 02:54:01;;;;;;;5.07;3.10;;;16.30;99.90;;;;;;5071765;28;20048;-86
2023/08/03 02:56:26;;;;;;;4.43;3.10;;;16.10;99.90;;;;;;5073636;28;20058;-88
2023/08/03 02:58:52;;;;;;;5.80;3.30;;;16.10;99.90;;;;;;5052557;28;20041;-86
2023/08/03 03:01:19;;;;;;;6.88;4.03;;;16.10;99.90;;;;;;5066250;28;20166;-85
2023/08/03 03:03:45;;;;;;;7.55;4.18;;;16.10;99.90;;;;;;5084003;28;20151;-87
2023/08/03 03:06:10;;;;;;;6.82;3.90;;;16.20;99.90;;;;;;5069588;28;20119;-89
2023/08/03 03:08:36;;;;;;;6.05;3.90;;;16.10;99.90;;;;;;5083907;28;20058;-89
2023/08/03 03:11:01;;;;;;;5.97;3.92;;;16.40;99.90;;;;;;5066675;28;20600;-86
2023/08/03 03:13:27;;;;;;;8.68;4.20;;;16.20;99.90;;;;;;5086639;28;20044;-86
2023/08/03 03:15:53;;;;;;;7.60;4.90;;;16.10;99.90;;;;;;5061972;28;20131;-86
2023/08/03 03:18:18;;;;;;;11.80;4.90;;;16.20;99.90;;;;;;5069700;28;20049;-85
2023/08/03 03:20:44;;;;;;;5.78;4.80;;;16.20;99.90;;;;;;5070687;28;20054;-86
2023/08/03 03:23:10;;;;;;;8.52;4.55;;;16.20;99.90;;;;;;5079040;28;20074;-85
2023/08/03 03:25:35;;;;;;;10.15;4.38;;;16.20;99.90;;;;;;5069361;28;20052;-86
2023/08/03 03:28:04;;;;;;;9.48;5.15;;;16.30;99.90;;;;;;5084337;28;20594;-86
2023/08/03 03:30:33;;;;;;;6.97;4.13;;;16.30;99.90;;;;;;5075495;28;20040;-86
2023/08/03 03:32:58;;;;;;;7.60;4.65;;;16.50;99.90;;;;;;5069464;28;20083;-85
2023/08/03 03:35:24;;;;;;;11.23;5.47;;;16.30;99.90;;;;;;5071070;28;20059;-86
2023/08/03 03:37:50;;;;;;;9.82;3.80;;;16.30;99.90;;;;;;5079900;28;20565;-85
2023/08/03 03:40:18;;;;;;;6.80;4.20;;;16.30;99.90;;;;;;5055605;28;20070;-87
2023/08/03 03:42:44;;;;;;;7.40;3.40;;;15.90;99.90;;;;;;5068225;28;20056;-86
2023/08/03 03:45:10;;;;;;;9.00;3.58;;;16.30;99.90;;;;;;5068109;28;20063;-85
2023/08/03 03:47:35;;;;;;;7.13;3.60;;;16.20;99.90;;;;;;5067539;28;20378;-89
2023/08/03 03:50:04;;;;;;;9.50;3.70;;;16.40;99.90;;;;;;5074201;28;20060;-90
2023/08/03 03:52:29;;;;;;;10.82;3.33;;;16.30;99.90;;;;;;5077486;28;20394;-85
2023/08/03 03:54:55;;;;;;;9.13;3.13;;;16.20;99.90;;;;;;5069594;28;20040;-86
2023/08/03 03:57:21;;;;;;;8.05;3.28;;;16.30;99.90;;;;;;5100866;28;20080;-86
2023/08/03 03:59:46;;;;;;;11.18;3.65;;;16.40;99.90;;;;;;5069495;28;20098;-84
2023/08/03 04:02:12;;;;;;;10.80;3.42;;;16.20;99.90;;;;;;5077441;28;20448;-86
2023/08/03 04:04:37;;;;;;;15.98;3.97;;;16.20;99.90;;;;;;5068886;28;20041;-86
2023/08/03 04:07:03;;;;;;;10.38;3.60;;;16.50;99.90;;;;;;5056881;28;20067;-85
2023/08/03 04:09:29;;;;;;;16.85;3.65;;;16.20;99.90;;;;;;5072441;28;20052;-85
2023/08/03 04:11:54;;;;;;;13.05;3.40;;;16.20;99.90;;;;;;5067682;28;20520;-86
2023/08/03 04:14:20;;;;;;;16.10;3.40;;;16.20;99.90;;;;;;5068003;28;20074;-85
2023/08/03 04:16:46;;;;;;;11.88;3.42;;;16.20;99.90;;;;;;5067667;28;20059;-86
2023/08/03 04:19:11;;;;;;;14.73;3.75;;;16.20;99.90;;;;;;5066784;28;20044;-86
2023/08/03 04:21:37;;;;;;;9.23;3.28;;;16.20;99.90;;;;;;5068155;28;20051;-85
2023/08/03 04:24:02;;;;;;;10.88;3.20;;;16.20;99.90;;;;;;5067754;28;20047;-86
2023/08/03 04:26:28;;;;;;;13.93;3.38;;;16.20;99.90;;;;;;5073393;28;20073;-86
2023/08/03 04:28:54;;;;;;;11.98;2.85;;;16.20;99.90;;;;;;5088056;28;20081;-86
2023/08/03 04:31:19;;;;;;;8.75;2.85;;;16.30;99.90;;;;;;5085466;28;20036;-86
2023/08/03 04:33:45;;;;;;;9.10;2.90;;;16.50;99.90;;;;;;5086338;28;20086;-86
2023/08/03 04:36:10;;;;;;;8.85;2.65;;;16.40;99.90;;;;;;5082767;28;20040;-86
2023/08/03 04:38:36;;;;;;;10.50;2.60;;;16.20;99.90;;;;;;5059981;28;20393;-86
2023/08/03 04:41:01;;;;;;;9.05;2.35;;;16.20;99.90;;;;;;5070262;28;20052;-86
2023/08/03 04:43:28;;;;;;;14.65;2.90;;;16.20;99.90;;;;;;5080871;28;20479;-86
2023/08/03 04:45:53;;;;;;;13.20;3.13;;;16.20;99.90;;;;;;5071550;28;20093;-86
2023/08/03 04:48:19;;;;;;;12.25;2.65;;;16.20;99.90;;;;;;5067280;28;20120;-86
2023/08/03 04:50:45;;;;;;;11.98;2.60;;;16.20;99.90;;;;;;5051070;28;20048;-86
2023/08/03 04:53:11;;;;;;;9.65;2.63;;;16.30;99.90;;;;;;5068071;28;20083;-85
2023/08/03 04:55:36;;;;;;;9.98;2.47;;;16.80;99.90;;;;;;5067109;28;20051;-86
2023/08/03 04:58:02;;;;;;;8.95;2.55;;;16.30;99.90;;;;;;5068412;28;20056;-85
2023/08/03 05:00:28;;;;;;;13.55;3.25;;;16.40;99.90;;;;;;5076842;28;20051;-85
2023/08/03 05:02:54;;;;;;;10.25;2.55;;;16.30;99.90;;;;;;5070371;28;20097;-85
2023/08/03 05:05:19;;;;;;;11.75;3.22;;;16.40;99.90;;;;;;5085613;28;20119;-85
2023/08/03 05:07:45;;;;;;;11.80;2.80;;;16.40;99.90;;;;;;5059487;28;20060;-86
2023/08/03 05:10:10;;;;;;;14.23;3.10;;;16.50;99.90;;;;;;5048934;28;20040;-85
2023/08/03 05:12:38;;;;;;;11.93;2.92;;;16.60;99.90;;;;;;5070969;28;20119;-84
2023/08/03 05:15:05;;;;;;;10.90;3.00;;;16.50;99.90;;;;;;5068684;28;20048;-85
2023/08/03 05:17:30;;;;;;;10.60;2.55;;;16.50;99.90;;;;;;5049713;28;20053;-86
2023/08/03 05:19:56;;;;;;;11.02;3.35;;;16.60;99.90;;;;;;5067052;28;20048;-87
2023/08/03 05:22:21;;;;;;;7.35;3.00;;;17.00;99.90;;;;;;5080020;28;20048;-87
2023/08/03 05:24:47;;;;;;;5.95;2.88;;;16.60;99.90;;;;;;5077251;28;20406;-86
2023/08/03 05:27:13;;;;;;;9.38;2.85;;;16.60;99.90;;;;;;5050490;28;20146;-86
2023/08/03 05:29:42;;;;;;;11.60;3.08;;;16.60;99.90;;;;;;5067313;28;20048;-85
2023/08/03 05:32:08;;;;;;;8.45;2.88;;;16.90;99.90;;;;;;5066636;28;20056;-88
2023/08/03 05:34:34;;;;;;;7.80;3.20;;;16.80;99.90;;;;;;5067162;28;20052;-87
2023/08/03 05:36:59;;;;;;;9.25;3.40;;;16.90;99.90;;;;;;5067197;28;20044;-87
2023/08/03 05:39:26;;;;;;;10.32;2.88;;;17.50;99.90;;;;;;5081074;28;20161;-87
2023/08/03 05:41:52;;;;;;;10.20;3.65;;;17.20;99.90;;;;;;5055175;28;20414;-88
2023/08/03 05:44:21;;;;;;;8.50;3.33;;;17.50;99.90;;;;;;5067438;28;20070;-88
2023/08/03 05:46:46;;;;;;;7.32;3.58;;;17.50;99.90;;;;;;5066557;28;20087;-88
2023/08/03 05:49:12;;;;;;;8.73;3.20;;;18.40;99.90;;;;;;5066554;28;20095;-87
2023/08/03 05:51:41;;;;;;;7.20;3.25;;;19.00;99.90;;;;;;5066139;28;20064;-85
2023/08/03 05:54:15;;;;;;;5.25;3.08;;;19.00;99.90;;;;;;5067627;28;20060;-85
2023/08/03 05:56:41;;;;;;;9.18;3.10;;;19.40;99.90;;;;;;5054045;28;20055;-85
2023/08/03 05:59:15;;;;;;;6.90;2.58;;;19.30;99.90;;;;;;5080750;28;20043;-86
2023/08/03 06:01:41;;;;;;;7.63;2.78;;;19.50;99.90;;;;;;5088463;28;20509;-86
2023/08/03 06:04:11;;;;;;;6.93;2.78;;;19.70;99.90;;;;;;5073516;28;20716;-85
2023/08/03 06:06:36;;;;;;;11.30;2.85;;;19.40;99.90;;;;;;5090782;28;20110;-87
2023/08/03 06:09:03;;;;;;;6.72;2.70;;;19.20;99.90;;;;;;5090155;28;20410;-88
2023/08/03 06:11:31;;;;;;;6.45;2.80;;;19.10;99.90;;;;;;5091936;28;20131;-86
2023/08/03 06:13:57;;;;;;;9.85;2.50;;;19.00;99.90;;;;;;5086159;28;20152;-87
2023/08/03 06:16:24;;;;;;;5.38;2.13;;;18.80;99.90;;;;;;5090602;28;20044;-85
2023/08/03 06:18:54;;;;;;;6.25;2.40;;;18.70;99.90;;;;;;5072738;28;20302;-85
2023/08/03 06:21:23;;;;;;;4.72;2.25;;;18.70;99.90;;;;;;5069992;28;20068;-86
2023/08/03 06:23:51;;;;;;;8.93;2.80;;;18.60;99.90;;;;;;5052328;28;20043;-86
2023/08/03 06:26:18;;;;;;;6.45;2.50;;;18.50;99.90;;;;;;5070053;28;20037;-85
2023/08/03 06:28:44;;;;;;;5.63;2.20;;;18.50;99.90;;;;;;5069066;28;20659;-85
2023/08/03 06:31:18;;;;;;;6.32;2.50;;;18.60;99.90;;;;;;5069433;28;20518;-85
2023/08/03 06:33:45;;;;;;;5.22;2.30;;;18.60;99.90;;;;;;5072141;28;20043;-85
2023/08/03 06:36:15;;;;;;;5.57;2.15;;;18.50;99.90;;;;;;5076510;28;20055;-84
2023/08/03 06:38:41;;;;;;;5.97;2.15;;;18.50;99.90;;;;;;5063765;28;20075;-84
2023/08/03 06:41:08;;;;;;;4.45;1.88;;;18.50;99.90;;;;;;5052567;28;20041;-85
2023/08/03 06:43:34;;;;;;;5.53;2.00;;;18.50;99.90;;;;;;5069503;28;20094;-84
2023/08/03 06:45:59;;;;;;;4.82;1.92;;;18.50;99.90;;;;;;5069615;28;20421;-84
2023/08/03 06:48:25;;;;;;;8.40;2.08;;;18.60;99.90;;;;;;5069258;28;20045;-84
2023/08/03 06:50:51;;;;;;;6.60;2.08;;;18.70;99.90;;;;;;5079680;28;20048;-85
2023/08/03 06:53:17;;;;;;;7.35;1.95;;;18.90;99.90;;;;;;5086264;28;20055;-84
2023/08/03 06:55:48;;;;;;;5.72;1.52;;;19.00;99.90;;;;;;5090147;28;20060;-82
2023/08/03 06:58:19;;;;;;;3.65;1.83;;;19.00;99.90;;;;;;5090319;28;20067;-86
2023/08/03 07:00:46;;;;;;;20.23;3.08;;;19.00;99.90;;;;;;5089159;28;20104;-84
2023/08/03 07:03:12;;;;;;;5.57;1.75;;;19.00;99.90;;;;;;5080783;28;20086;-84
2023/08/03 07:05:41;;;;;;;5.72;1.90;;;18.90;99.90;;;;;;5069533;28;20055;-87
2023/08/03 07:08:07;;;;;;;7.30;2.60;;;19.00;99.90;;;;;;5053575;28;20048;-86
2023/08/03 07:10:34;;;;;;;3.70;1.20;;;18.80;99.90;;;;;;5070905;28;20083;-86
2023/08/03 07:13:00;;;;;;;6.65;1.60;;;18.80;99.90;;;;;;5053194;28;20051;-86
2023/08/03 07:15:25;;;;;;;4.80;1.55;;;19.10;99.90;;;;;;5082287;28;20394;-86
2023/08/03 07:17:51;;;;;;;4.38;1.42;;;19.00;99.90;;;;;;5083214;28;20821;-86
2023/08/03 07:20:18;;;;;;;4.68;1.60;;;18.80;99.90;;;;;;5086732;28;20044;-85
2023/08/03 07:22:48;;;;;;;5.40;1.70;;;18.90;99.90;;;;;;5087176;28;20066;-84
2023/08/03 07:25:14;;;;;;;5.65;1.48;;;18.80;99.90;;;;;;5075032;28;20039;-85
2023/08/03 07:27:41;;;;;;;4.45;1.67;;;18.90;99.90;;;;;;5078024;28;20114;-86
2023/08/03 07:30:07;;;;;;;4.78;1.50;;;18.80;99.90;;;;;;5069608;28;20071;-86
2023/08/03 07:32:34;;;;;;;3.17;1.42;;;18.90;99.90;;;;;;5071632;28;20040;-86
2023/08/03 07:35:00;;;;;;;3.88;1.20;;;19.70;99.90;;;;;;5088973;28;20482;-86
2023/08/03 07:37:25;;;;;;;5.97;1.45;;;19.30;99.90;;;;;;5088204;28;20043;-85
2023/08/03 07:39:51;;;;;;;3.90;1.27;;;19.60;99.90;;;;;;5087045;28;20044;-86
2023/08/03 07:42:16;;;;;;;2.70;1.13;;;19.40;99.90;;;;;;5087711;28;20585;-86
2023/08/03 07:44:42;;;;;;;5.57;1.58;;;20.50;99.90;;;;;;5073871;28;20832;-86
2023/08/03 07:47:08;;;;;;;7.22;1.35;;;20.30;99.90;;;;;;5087592;28;20114;-86
2023/08/03 07:49:33;;;;;;;3.28;1.17;;;20.00;99.90;;;;;;5088077;28;20182;-86
2023/08/03 07:51:59;;;;;;;2.38;1.25;;;20.00;99.90;;;;;;5087763;28;20146;-86
2023/08/03 07:54:25;;;;;;;1.83;0.80;;;19.90;99.90;;;;;;5088380;28;20082;-86
2023/08/03 07:56:50;;;;;;;2.33;0.90;;;20.10;99.90;;;;;;5088596;28;20044;-86
2023/08/03 07:59:16;;;;;;;2.65;1.00;;;20.20;99.90;;;;;;5071676;28;20052;-89
2023/08/03 08:01:43;;;;;;;2.38;0.98;;;20.20;99.90;;;;;;5079133;28;20486;-86
2023/08/03 08:04:09;;;;;;;2.90;0.90;;;20.40;99.90;;;;;;5052485;28;20113;-87
2023/08/03 08:06:37;;;;;;;2.00;1.00;;;20.50;99.90;;;;;;5067946;28;20053;-86
2023/08/03 08:09:04;;;;;;;1.45;0.65;;;20.40;99.90;;;;;;5067913;28;20041;-87
2023/08/03 08:11:30;;;;;;;5.18;1.00;;;20.50;99.90;;;;;;5050861;28;20518;-86
2023/08/03 08:13:57;;;;;;;2.08;0.70;;;20.60;99.90;;;;;;5067907;28;20091;-86
2023/08/03 08:16:23;;;;;;;3.63;0.73;;;20.90;99.90;;;;;;5050449;28;20089;-86
2023/08/03 08:18:48;;;;;;;1.58;1.10;;;20.80;99.90;;;;;;5051080;28;20487;-87
2023/08/03 08:21:14;;;;;;;1.75;0.73;;;20.60;99.90;;;;;;5050893;28;20091;-86
2023/08/03 08:23:40;;;;;;;2.88;1.00;;;20.50;99.90;;;;;;5067029;28;20056;-86
2023/08/03 08:26:25;;;;;;;4.18;1.90;;;20.70;99.90;;;;;;5067890;28;20059;-86
2023/08/03 08:28:56;;;;;;;5.13;0.98;;;20.60;99.90;;;;;;5052409;28;20072;-86
2023/08/03 08:31:22;;;;;;;2.28;1.15;;;20.80;99.90;;;;;;5052617;28;20112;-84
2023/08/03 08:33:48;;;;;;;2.25;0.80;;;21.50;99.90;;;;;;5067464;28;20140;-85
2023/08/03 08:36:13;;;;;;;2.97;0.80;;;21.10;99.90;;;;;;5068680;28;20188;-88
2023/08/03 08:38:39;;;;;;;2.20;0.80;;;21.00;99.90;;;;;;5059416;28;20036;-86
2023/08/03 08:41:05;;;;;;;1.92;0.80;;;20.90;99.90;;;;;;5073025;28;20045;-87
2023/08/03 08:43:32;;;;;;;1.98;0.73;;;20.70;99.90;;;;;;5086333;28;20054;-86
2023/08/03 08:45:58;;;;;;;2.15;1.00;;;21.00;99.90;;;;;;5087048;28;20123;-86
2023/08/03 08:48:23;;;;;;;1.88;0.70;;;21.20;99.90;;;;;;5070033;28;20039;-87
2023/08/03 08:50:50;;;;;;;4.43;1.00;;;20.90;99.90;;;;;;5069342;28;20409;-87
2023/08/03 08:53:16;;;;;;;1.42;0.70;;;20.90;99.90;;;;;;5056288;28;20103;-87
2023/08/03 08:55:41;;;;;;;3.72;1.20;;;21.00;99.90;;;;;;5051265;28;20095;-85
2023/08/03 08:58:07;;;;;;;3.30;0.98;;;21.20;99.90;;;;;;5051172;28;20047;-86
2023/08/03 09:00:44;;;;;;;1.52;0.90;;;21.40;99.90;;;;;;5069028;28;20049;-87
2023/08/03 09:03:10;;;;;;;2.30;0.90;;;21.60;99.90;;;;;;5052333;28;20105;-86
2023/08/03 09:05:37;;;;;;;6.20;1.10;;;21.80;99.90;;;;;;5060366;28;20059;-86
2023/08/03 09:08:11;;;;;;;2.35;0.75;;;22.00;99.90;;;;;;5070594;28;20044;-85
2023/08/03 09:10:51;;;;;;;2.83;0.80;;;22.00;99.90;;;;;;5087263;28;20044;-86
2023/08/03 09:13:31;;;;;;;1.77;0.73;;;21.90;99.90;;;;;;5068759;28;20120;-87
2023/08/03 09:15:57;;;;;;;2.65;0.70;;;21.80;99.90;;;;;;5084202;28;20115;-86
2023/08/03 09:18:27;;;;;;;4.20;0.70;;;21.80;99.90;;;;;;5070939;28;20043;-87
2023/08/03 09:21:17;;;;;;;1.70;0.60;;;22.00;99.90;;;;;;5064207;28;21210;-88
2023/08/03 09:23:43;;;;;;;1.83;0.80;;;22.20;99.90;;;;;;5062239;28;20051;-88
2023/08/03 09:26:14;;;;;;;5.25;1.42;;;22.10;99.90;;;;;;5060170;28;20059;-86
2023/08/03 09:28:42;;;;;;;3.38;0.85;;;22.20;99.90;;;;;;5078984;28;20051;-89
2023/08/03 09:31:09;;;;;;;5.50;1.00;;;22.10;99.90;;;;;;5078445;28;20036;-88
2023/08/03 09:33:35;;;;;;;3.97;1.00;;;22.20;99.90;;;;;;5085161;28;20105;-88
2023/08/03 09:36:14;;;;;;;2.92;1.30;;;22.30;99.90;;;;;;5060729;28;20052;-93
2023/08/03 09:38:46;;;;;;;4.45;0.90;;;22.50;99.90;;;;;;5066573;28;20072;-91
2023/08/03 09:41:12;;;;;;;3.78;1.38;;;22.60;99.90;;;;;;5060955;28;20087;-90
2023/08/03 09:43:40;;;;;;;4.07;1.10;;;22.40;99.90;;;;;;5074473;28;20147;-88
2023/08/03 09:46:14;;;;;;;1.63;0.82;;;22.40;99.90;;;;;;5058335;28;20375;-92
2023/08/03 09:48:48;;;;;;;9.63;1.95;;;22.20;99.90;;;;;;5075310;28;20137;-93
2023/08/03 09:51:15;;;;;;;3.88;0.70;;;22.30;99.90;;;;;;5057969;28;20053;-92
2023/08/03 09:53:44;;;;;;;2.97;1.00;;;22.40;99.90;;;;;;5058242;28;20052;-91
2023/08/03 09:56:12;;;;;;;3.63;0.90;;;22.70;99.90;;;;;;5057925;28;20040;-92
2023/08/03 09:58:46;;;;;;;1.90;0.70;;;22.80;99.90;;;;;;5058297;28;20044;-92
2023/08/03 10:01:25;;;;;;;5.03;1.50;;;22.90;99.90;;;;;;5058396;28;20037;-88
2023/08/03 10:03:59;;;;;;;3.30;0.77;;;22.90;99.90;;;;;;5058069;28;20126;-91
2023/08/03 10:06:33;;;;;;;2.30;0.80;;;23.20;99.90;;;;;;5055094;28;20076;-89
2023/08/03 10:09:13;;;;;;;3.95;0.93;;;23.00;99.90;;;;;;5072187;28;20053;-92
2023/08/03 10:11:47;;;;;;;3.30;0.80;;;22.80;99.90;;;;;;5054987;28;20040;-90
2023/08/03 10:14:16;;;;;;;3.97;1.05;;;23.10;99.90;;;;;;5071909;28;20702;-90
2023/08/03 10:17:05;;;;;;;3.20;0.80;;;23.20;99.90;;;;;;5063267;28;20050;-92
2023/08/03 10:19:32;;;;;;;2.60;0.73;;;23.00;99.90;;;;;;5065394;28;20047;-93
2023/08/03 10:21:58;;;;;;;2.13;0.60;;;23.00;99.90;;;;;;5071156;28;20048;-92
2023/08/03 10:24:24;;;;;;;2.42;0.80;;;23.20;99.90;;;;;;5064389;28;20043;-94
2023/08/03 10:27:23;;;;;;;3.38;1.00;;;23.40;99.90;;;;;;5076996;28;20111;-93
2023/08/03 10:29:56;;;;;;;4.45;0.93;;;23.50;99.90;;;;;;5060599;28;20044;-91
2023/08/03 10:32:25;;;;;;;3.22;0.77;;;23.90;99.90;;;;;;5096622;28;20048;-93
2023/08/03 10:35:34;;;;;;;2.67;0.80;;;23.50;99.90;;;;;;5057411;28;20145;-92
2023/08/03 10:38:00;;;;;;;2.70;0.95;;;23.30;99.90;;;;;;5057427;28;20048;-92
2023/08/03 10:40:30;;;;;;;2.80;0.95;;;23.10;99.90;;;;;;5057004;28;20434;-93
2023/08/03 10:43:08;;;;;;;2.80;0.93;;;23.30;99.90;;;;;;5064429;28;20042;-89
2023/08/03 10:45:35;;;;;;;2.90;1.00;;;23.80;99.90;;;;;;5080671;28;20036;-90
2023/08/03 10:48:29;;;;;;;2.92;1.20;;;23.90;99.90;;;;;;5093650;28;20052;-92
2023/08/03 10:51:02;;;;;;;3.08;0.98;;;23.70;99.90;;;;;;5059689;28;20045;-90
2023/08/03 10:53:33;;;;;;;3.55;1.15;;;23.80;99.90;;;;;;5059847;28;20051;-91
2023/08/03 10:56:14;;;;;;;2.75;0.93;;;24.10;99.90;;;;;;5062534;28;20040;-92
2023/08/03 10:58:50;;;;;;;2.42;0.85;;;24.00;99.90;;;;;;5077673;28;20036;-91
2023/08/03 11:01:23;;;;;;;4.80;1.20;;;23.60;99.90;;;;;;5076187;28;20135;-90
2023/08/03 11:03:50;;;;;;;3.33;0.90;;;23.70;99.90;;;;;;5077067;28;20328;-93
2023/08/03 11:06:16;;;;;;;2.30;1.17;;;24.10;99.90;;;;;;5074736;28;20048;-93
2023/08/03 11:08:44;;;;;;;2.40;0.90;;;24.00;99.90;;;;;;5077191;28;20043;-91
2023/08/03 11:11:12;;;;;;;2.35;1.00;;;23.60;99.90;;;;;;5056766;28;20129;-89
2023/08/03 11:13:41;;;;;;;2.42;1.00;;;23.80;99.90;;;;;;5058155;28;20040;-89
2023/08/03 11:16:16;;;;;;;3.95;1.10;;;23.70;99.90;;;;;;5056367;28;20195;-88
2023/08/03 11:18:53;;;;;;;4.40;1.20;;;23.70;99.90;;;;;;5083734;28;20048;-90
2023/08/03 11:21:18;;;;;;;3.13;0.95;;;23.70;99.90;;;;;;5075453;28;20051;-92
2023/08/03 11:23:45;;;;;;;1.73;1.00;;;23.70;99.90;;;;;;5075857;28;20044;-90
2023/08/03 11:26:14;;;;;;;4.13;1.02;;;23.70;99.90;;;;;;5073656;28;20194;-90
2023/08/03 11:28:43;;;;;;;3.08;0.88;;;23.70;99.90;;;;;;5056966;28;20517;-89
2023/08/03 11:31:38;;;;;;;1.60;0.90;;;23.50;99.90;;;;;;5057925;28;20043;-89
2023/08/03 11:34:05;;;;;;;1.98;0.80;;;23.40;99.90;;;;;;5054987;28;20051;-89
2023/08/03 11:36:32;;;;;;;1.80;0.90;;;23.50;99.90;;;;;;5063513;28;20150;-90
2023/08/03 11:38:59;;;;;;;2.88;0.80;;;23.60;99.90;;;;;;5061001;28;20078;-90
2023/08/03 11:41:30;;;;;;;4.03;0.88;;;23.60;99.90;;;;;;5057185;28;20037;-87
2023/08/03 11:43:55;;;;;;;1.73;0.70;;;23.70;99.90;;;;;;5071363;28;20103;-89
2023/08/03 11:46:28;;;;;;;1.13;0.65;;;23.80;99.90;;;;;;5093834;28;20098;-90
2023/08/03 11:49:02;;;;;;;1.40;0.93;;;24.10;99.90;;;;;;5074921;28;20101;-89
2023/08/03 11:51:36;;;;;;;1.08;0.55;;;23.70;99.90;;;;;;5055397;28;20457;-90
2023/08/03 11:54:24;;;;;;;1.67;0.50;;;23.40;99.90;;;;;;5065755;28;20056;-90
2023/08/03 11:56:50;;;;;;;2.03;0.60;;;23.40;99.90;;;;;;5092175;28;20054;-89
2023/08/03 11:59:15;;;;;;;1.27;0.70;;;23.30;99.90;;;;;;5070442;28;20078;-91
2023/08/03 12:01:46;;;;;;;2.08;0.60;;;23.20;99.90;;;;;;5056267;28;20048;-88
2023/08/03 12:04:12;;;;;;;2.53;0.80;;;23.00;99.90;;;;;;5058184;28;20148;-89
2023/08/03 12:06:54;;;;;;;3.72;0.80;;;22.90;99.90;;;;;;5065632;28;20048;-89
2023/08/03 12:09:27;;;;;;;1.98;0.65;;;23.00;99.90;;;;;;5079238;28;20043;-88
2023/08/03 12:12:01;;;;;;;3.95;1.05;;;23.20;99.90;;;;;;5074172;28;20040;-89
2023/08/03 12:14:27;;;;;;;3.53;0.70;;;23.30;99.90;;;;;;5068846;28;20054;-89
2023/08/03 12:16:53;;;;;;;2.15;0.70;;;23.70;99.90;;;;;;5083538;28;20044;-89
2023/08/03 12:19:19;;;;;;;1.77;0.60;;;23.70;99.90;;;;;;5075176;28;20044;-88
2023/08/03 12:21:45;;;;;;;1.70;0.70;;;23.70;99.90;;;;;;5060493;28;20040;-89
2023/08/03 12:24:12;;;;;;;3.17;1.00;;;24.20;99.90;;;;;;5071831;28;20040;-89
2023/08/03 12:26:41;;;;;;;2.88;0.80;;;23.80;99.90;;;;;;5056610;28;20044;-89
2023/08/03 12:29:08;;;;;;;1.98;0.65;;;24.00;99.90;;;;;;5060337;28;20130;-91
2023/08/03 12:31:34;;;;;;;1.90;0.75;;;24.00;99.90;;;;;;5072976;28;20071;-89
2023/08/03 12:34:00;;;;;;;3.80;1.05;;;23.60;99.90;;;;;;5069006;28;20109;-90
2023/08/03 12:36:26;;;;;;;4.32;0.90;;;23.30;99.90;;;;;;5070064;28;20415;-90
2023/08/03 12:38:53;;;;;;;1.98;0.88;;;23.10;99.90;;;;;;5063653;28;20044;-93
2023/08/03 12:41:24;;;;;;;18.92;3.25;;;22.90;99.90;;;;;;5071580;28;20040;-92
2023/08/03 12:43:50;;;;;;;8.82;1.75;;;22.80;99.90;;;;;;5055689;28;20044;-90
2023/08/03 12:46:16;;;;;;;7.13;1.50;;;22.80;99.90;;;;;;5074179;28;20394;-91
2023/08/03 12:48:42;;;;;;;3.67;1.00;;;22.50;99.90;;;;;;5073241;28;20206;-92